createdAt,value
2022-09-13T00:01:11.728Z,14.03
2022-09-13T00:03:42.917Z,14.02
2022-09-13T00:06:13.440Z,14.09
2022-09-13T00:08:44.484Z,14.10
2022-09-13T00:11:18.016Z,14.14
2022-09-13T00:13:46.737Z,14.26
2022-09-13T00:16:17.301Z,14.34
2022-09-13T00:18:46.278Z,14.37
2022-09-13T00:21:17.634Z,14.41
2022-09-13T00:23:49.553Z,14.42
2022-09-13T00:26:20.159Z,14.45
2022-09-13T00:28:54.185Z,14.44
2022-09-13T00:31:24.286Z,14.36
2022-09-13T00:33:58.600Z,14.33
2022-09-13T00:36:26.886Z,14.23
2022-09-13T00:38:56.658Z,14.13
2022-09-13T00:41:25.062Z,14.05
2022-09-13T00:43:54.627Z,13.95
2022-09-13T00:46:27.217Z,13.88
2022-09-13T00:49:03.159Z,13.81
2022-09-13T00:51:32.729Z,13.73
2022-09-13T00:54:03.758Z,13.66
2022-09-13T00:56:35.660Z,13.63
2022-09-13T00:59:07.824Z,13.65
2022-09-13T01:01:40.276Z,13.65
2022-09-13T01:04:12.496Z,13.68
2022-09-13T01:06:41.637Z,13.75
2022-09-13T01:09:14.083Z,13.75
2022-09-13T01:11:49.323Z,13.79
2022-09-13T01:14:19.199Z,13.76
2022-09-13T01:16:48.323Z,13.68
2022-09-13T01:19:17.806Z,13.65
2022-09-13T01:22:29.579Z,13.48
2022-09-13T01:25:15.867Z,13.38
2022-09-13T01:27:57.145Z,13.31
2022-09-13T01:30:33.448Z,13.24
2022-09-13T01:33:37.986Z,13.17
2022-09-13T01:36:33.000Z,13.16
2022-09-13T01:39:05.265Z,13.14
2022-09-13T01:41:56.031Z,13.04
2022-09-13T01:44:31.970Z,12.99
2022-09-13T01:47:08.035Z,12.94
2022-09-13T01:49:45.004Z,12.90
2022-09-13T01:52:19.323Z,12.93
2022-09-13T01:54:53.527Z,12.94
2022-09-13T01:57:24.805Z,12.94
2022-09-13T01:59:54.902Z,13.01
2022-09-13T02:02:31.869Z,13.08
2022-09-13T02:05:04.173Z,13.14
2022-09-13T02:07:36.530Z,13.27
2022-09-13T02:10:06.556Z,13.34
2022-09-13T02:12:36.575Z,13.32
2022-09-13T02:15:08.646Z,13.30
2022-09-13T02:17:39.782Z,13.27
2022-09-13T02:20:11.961Z,13.23
2022-09-13T02:22:43.562Z,13.23
2022-09-13T02:25:15.290Z,13.27
2022-09-13T02:27:48.829Z,13.28
2022-09-13T02:30:17.275Z,13.23
2022-09-13T02:32:51.238Z,13.16
2022-09-13T02:35:22.989Z,13.03
2022-09-13T02:37:58.745Z,12.94
2022-09-13T02:40:33.155Z,12.89
2022-09-13T02:43:05.801Z,12.80
2022-09-13T02:45:37.590Z,12.76
2022-09-13T02:48:12.488Z,12.76
2022-09-13T02:50:47.261Z,12.72
2022-09-13T02:53:20.049Z,12.75
2022-09-13T02:55:56.631Z,12.68
2022-09-13T02:58:32.107Z,12.65
2022-09-13T03:01:00.634Z,12.58
2022-09-13T03:03:32.071Z,12.55
2022-09-13T03:06:00.556Z,12.46
2022-09-13T03:08:29.425Z,12.45
2022-09-13T03:11:08.204Z,12.45
2022-09-13T03:13:49.986Z,12.44
2022-09-13T03:16:35.243Z,12.41
2022-09-13T03:19:19.638Z,12.48
2022-09-13T03:22:01.519Z,12.48
2022-09-13T03:24:35.192Z,12.46
2022-09-13T03:27:11.577Z,12.48
2022-09-13T03:29:44.860Z,12.51
2022-09-13T03:32:22.108Z,12.53
2022-09-13T03:34:57.054Z,12.56
2022-09-13T03:37:29.323Z,12.62
2022-09-13T03:40:05.093Z,12.66
2022-09-13T03:42:35.949Z,12.72
2022-09-13T03:45:06.411Z,12.80
2022-09-13T03:47:36.831Z,12.90
2022-09-13T03:50:09.502Z,12.97
2022-09-13T03:52:37.713Z,13.01
2022-09-13T03:55:07.497Z,13.08
2022-09-13T03:57:35.773Z,13.11
2022-09-13T04:00:06.045Z,13.17
2022-09-13T04:02:34.513Z,13.27
2022-09-13T04:05:03.048Z,13.31
2022-09-13T04:07:32.705Z,13.40
2022-09-13T04:10:01.304Z,13.44
2022-09-13T04:12:31.899Z,13.45
2022-09-13T04:15:01.696Z,13.48
2022-09-13T04:17:30.850Z,13.48
2022-09-13T04:19:59.538Z,13.52
2022-09-13T04:22:28.732Z,13.54
2022-09-13T04:25:02.142Z,13.55
2022-09-13T04:27:31.117Z,13.52
2022-09-13T04:29:59.512Z,13.58
2022-09-13T04:32:28.685Z,13.63
2022-09-13T04:34:57.074Z,13.66
2022-09-13T04:37:26.743Z,13.75
2022-09-13T04:39:55.242Z,13.81
2022-09-13T04:42:25.592Z,13.83
2022-09-13T04:44:53.997Z,13.86
2022-09-13T04:47:24.615Z,13.90
2022-09-13T04:49:53.125Z,13.92
2022-09-13T04:52:21.716Z,13.95
2022-09-13T04:54:50.863Z,13.99
2022-09-13T04:57:19.831Z,14.00
2022-09-13T04:59:51.645Z,13.96
2022-09-13T05:02:19.790Z,13.99
2022-09-13T05:04:48.085Z,14.02
2022-09-13T05:07:16.488Z,14.09
2022-09-13T05:09:46.295Z,14.20
2022-09-13T05:12:17.045Z,14.30
2022-09-13T05:14:48.496Z,14.45
2022-09-13T05:17:17.877Z,14.48
2022-09-13T05:19:45.994Z,14.48
2022-09-13T05:22:14.374Z,14.47
2022-09-13T05:24:43.390Z,14.41
2022-09-13T05:27:12.106Z,14.44
2022-09-13T05:29:40.103Z,14.42
2022-09-13T05:32:13.862Z,14.38
2022-09-13T05:34:43.313Z,14.34
2022-09-13T05:37:11.339Z,14.26
2022-09-13T05:40:07.329Z,14.17
2022-09-13T05:42:27.941Z,14.07
2022-09-13T05:44:57.414Z,13.92
2022-09-13T05:47:27.410Z,13.82
2022-09-13T05:50:10.321Z,13.78
2022-09-13T05:52:40.964Z,13.72
2022-09-13T05:55:10.119Z,13.68
2022-09-13T05:57:38.549Z,13.63
2022-09-13T06:00:07.635Z,13.63
2022-09-13T06:02:36.078Z,13.62
2022-09-13T06:05:07.006Z,13.59
2022-09-13T06:07:35.685Z,13.57
2022-09-13T06:10:05.462Z,13.52
2022-09-13T06:12:33.631Z,13.49
2022-09-13T06:15:03.334Z,13.44
2022-09-13T06:17:31.454Z,13.44
2022-09-13T06:20:00.116Z,13.44
2022-09-13T06:22:33.232Z,13.45
2022-09-13T06:25:01.662Z,13.45
2022-09-13T06:27:31.577Z,13.47
2022-09-13T06:30:00.325Z,13.49
2022-09-13T06:32:28.366Z,13.55
2022-09-13T06:34:56.716Z,13.57
2022-09-13T06:37:26.353Z,13.59
2022-09-13T06:40:01.887Z,13.59
2022-09-13T06:42:31.451Z,13.65
2022-09-13T06:44:59.987Z,13.68
2022-09-13T06:47:28.236Z,13.75
2022-09-13T06:49:57.519Z,13.81
2022-09-13T06:52:30.304Z,13.83
2022-09-13T06:55:00.425Z,13.89
2022-09-13T06:57:31.172Z,13.92
2022-09-13T06:59:59.452Z,13.98
2022-09-13T07:02:27.721Z,14.00
2022-09-13T07:05:04.576Z,14.06
2022-09-13T07:07:32.922Z,14.07
2022-09-13T07:10:02.727Z,14.16
2022-09-13T07:12:33.901Z,14.19
2022-09-13T07:15:04.854Z,14.24
2022-09-13T07:17:34.476Z,14.33
2022-09-13T07:20:09.357Z,14.42
2022-09-13T07:22:37.407Z,14.53
2022-09-13T07:25:09.566Z,14.64
2022-09-13T07:27:40.458Z,14.74
2022-09-13T07:30:13.034Z,14.82
2022-09-13T07:32:42.812Z,14.91
2022-09-13T07:35:15.876Z,15.02
2022-09-13T07:37:48.960Z,15.05
2022-09-13T07:40:20.064Z,15.06
2022-09-13T07:42:50.758Z,15.12
2022-09-13T07:45:20.459Z,15.19
2022-09-13T07:47:49.405Z,15.19
2022-09-13T07:50:19.878Z,15.25
2022-09-13T07:52:48.367Z,15.26
2022-09-13T07:55:20.168Z,15.36
2022-09-13T07:57:48.256Z,15.40
2022-09-13T08:00:20.007Z,15.42
2022-09-13T08:02:48.232Z,15.40
2022-09-13T08:05:18.665Z,15.42
2022-09-13T08:07:50.139Z,15.42
2022-09-13T08:10:22.285Z,15.44
2022-09-13T08:12:52.016Z,15.44
2022-09-13T08:15:33.491Z,15.47
2022-09-13T08:18:23.771Z,15.51
2022-09-13T08:20:54.021Z,15.50
2022-09-13T08:23:26.167Z,15.50
2022-09-13T08:25:57.280Z,15.57
2022-09-13T08:28:27.871Z,15.68
2022-09-13T08:30:59.169Z,15.88
2022-09-13T08:33:27.331Z,16.09
2022-09-13T08:35:59.368Z,16.44
2022-09-13T08:38:28.413Z,16.83
2022-09-13T08:40:58.989Z,17.02
2022-09-13T08:43:45.765Z,17.36
2022-09-13T08:46:23.212Z,17.62
2022-09-13T08:48:59.254Z,17.81
2022-09-13T08:51:41.062Z,18.16
2022-09-13T08:54:12.946Z,18.48
2022-09-13T08:57:02.544Z,18.69
2022-09-13T08:59:46.499Z,19.07
2022-09-13T09:02:26.550Z,19.50
2022-09-13T09:04:58.699Z,19.64
2022-09-13T09:07:34.917Z,19.90
2022-09-13T09:10:05.236Z,19.96
2022-09-13T09:12:37.129Z,20.20
2022-09-13T09:15:16.637Z,20.44
2022-09-13T09:17:50.845Z,20.57
2022-09-13T09:20:29.277Z,20.55
2022-09-13T09:22:57.671Z,20.82
2022-09-13T09:25:27.035Z,20.77
2022-09-13T09:27:55.901Z,20.96
2022-09-13T09:30:34.086Z,21.08
2022-09-13T09:33:19.731Z,21.16
2022-09-13T09:35:55.697Z,21.21
2022-09-13T09:38:41.761Z,21.02
2022-09-13T09:41:19.206Z,21.11
2022-09-13T09:43:53.896Z,21.35
2022-09-13T09:46:28.391Z,21.54
2022-09-13T09:48:58.310Z,21.70
2022-09-13T09:51:28.477Z,21.74
2022-09-13T09:54:05.777Z,21.66
2022-09-13T09:56:36.487Z,21.74
2022-09-13T09:59:04.613Z,21.81
2022-09-13T10:01:38.702Z,21.88
2022-09-13T10:04:09.715Z,22.13
2022-09-13T10:06:39.427Z,22.32
2022-09-13T10:09:18.151Z,22.64
2022-09-13T10:11:49.289Z,22.97
2022-09-13T10:14:38.923Z,23.35
2022-09-13T10:17:17.790Z,23.45
2022-09-13T10:19:54.229Z,23.55
2022-09-13T10:22:23.292Z,23.53
2022-09-13T10:24:52.689Z,23.48
2022-09-13T10:27:24.389Z,23.37
2022-09-13T10:29:59.730Z,23.31
2022-09-13T10:32:37.782Z,23.26
2022-09-13T10:35:10.986Z,23.26
2022-09-13T10:37:43.389Z,23.26
2022-09-13T10:40:21.223Z,23.19
2022-09-13T10:42:56.109Z,23.07
2022-09-13T10:45:28.901Z,22.99
2022-09-13T10:48:16.439Z,22.73
2022-09-13T10:51:05.222Z,22.41
2022-09-13T10:56:32.534Z,21.66
2022-09-13T10:59:17.038Z,21.28
2022-09-13T11:01:55.603Z,20.92
2022-09-13T11:04:57.319Z,20.55
2022-09-13T11:07:38.185Z,20.26
2022-09-13T11:10:13.065Z,20.02
2022-09-13T11:15:47.754Z,19.43
2022-09-13T11:18:37.445Z,19.18
2022-09-13T11:21:13.606Z,19.02
2022-09-13T11:23:50.634Z,18.85
2022-09-13T11:26:34.095Z,18.75
2022-09-13T11:29:15.302Z,18.58
2022-09-13T11:31:45.060Z,18.47
2022-09-13T11:34:23.615Z,18.37
2022-09-13T11:37:08.582Z,18.32
2022-09-13T11:39:40.143Z,18.27
2022-09-13T11:42:25.898Z,18.28
2022-09-13T11:45:22.618Z,18.27
2022-09-13T11:48:10.845Z,18.27
2022-09-13T11:50:48.339Z,18.28
2022-09-13T11:53:36.082Z,18.29
2022-09-13T11:56:08.943Z,18.35
2022-09-13T11:58:41.038Z,18.42
2022-09-13T12:01:12.865Z,18.45
2022-09-13T12:03:44.451Z,18.59
2022-09-13T12:06:16.444Z,18.72
2022-09-13T12:08:52.805Z,18.76
2022-09-13T12:11:25.731Z,18.83
2022-09-13T12:13:57.890Z,18.93
2022-09-13T12:16:35.925Z,19.03
2022-09-13T12:19:09.245Z,19.17
2022-09-13T12:21:41.781Z,19.23
2022-09-13T12:24:16.301Z,19.33
2022-09-13T12:26:49.021Z,19.44
2022-09-13T12:29:20.706Z,19.59
2022-09-13T12:31:49.185Z,19.69
2022-09-13T12:34:23.117Z,19.85
2022-09-13T12:37:12.028Z,20.01
2022-09-13T12:40:01.520Z,20.06
2022-09-13T12:43:01.423Z,20.10
2022-09-13T12:45:46.051Z,20.15
2022-09-13T12:48:37.016Z,20.16
2022-09-13T12:51:10.423Z,20.16
2022-09-13T12:53:57.087Z,20.16
2022-09-13T12:56:54.851Z,20.29
2022-09-13T12:59:44.802Z,20.29
2022-09-13T13:02:38.598Z,20.24
2022-09-13T13:05:20.760Z,20.22
2022-09-13T13:07:55.115Z,20.23
2022-09-13T13:10:28.110Z,20.27
2022-09-13T13:12:58.937Z,20.22
2022-09-13T13:15:56.898Z,20.23
2022-09-13T13:18:27.444Z,20.29
2022-09-13T13:21:35.239Z,20.34
2022-09-13T13:24:45.935Z,20.44
2022-09-13T13:27:37.946Z,20.51
2022-09-13T13:30:53.005Z,20.55
2022-09-13T13:33:25.766Z,20.55
2022-09-13T13:35:55.140Z,20.57
2022-09-13T13:38:44.469Z,20.60
2022-09-13T13:41:39.583Z,20.60
2022-09-13T13:44:45.377Z,20.65
2022-09-13T13:48:03.057Z,20.65
2022-09-13T13:50:35.094Z,20.57
2022-09-13T13:53:24.528Z,20.61
2022-09-13T13:56:10.020Z,20.64
2022-09-13T13:58:47.383Z,20.78
2022-09-13T14:01:19.666Z,20.88
2022-09-13T14:03:52.763Z,20.98
2022-09-13T14:06:30.474Z,20.95
2022-09-13T14:09:04.902Z,20.85
2022-09-13T14:11:49.528Z,20.80
2022-09-13T14:14:46.150Z,20.87
2022-09-13T14:17:47.885Z,20.92
2022-09-13T14:20:18.155Z,20.99
2022-09-13T14:22:47.986Z,21.01
2022-09-13T14:25:24.546Z,21.03
2022-09-13T14:27:56.538Z,21.02
2022-09-13T14:30:27.370Z,20.92
2022-09-13T14:32:59.058Z,20.92
2022-09-13T14:35:30.517Z,20.90
2022-09-13T14:38:14.660Z,20.87
2022-09-13T14:40:43.095Z,20.81
2022-09-13T14:43:19.483Z,20.65
2022-09-13T14:45:55.793Z,20.70
2022-09-13T14:48:26.428Z,20.80
2022-09-13T14:50:59.488Z,20.87
2022-09-13T14:53:34.988Z,20.85
2022-09-13T14:56:05.578Z,20.85
2022-09-13T14:58:42.827Z,20.87
2022-09-13T15:01:14.143Z,20.75
2022-09-13T15:03:43.374Z,20.73
2022-09-13T15:06:23.171Z,20.71
2022-09-13T15:08:53.538Z,20.63
2022-09-13T15:11:31.855Z,20.50
2022-09-13T15:14:21.135Z,20.36
2022-09-13T15:16:51.153Z,20.27
2022-09-13T15:19:31.186Z,20.22
2022-09-13T15:22:23.024Z,20.16
2022-09-13T15:24:54.974Z,20.08
2022-09-13T15:27:26.843Z,20.02
2022-09-13T15:29:57.312Z,19.92
2022-09-13T15:32:33.136Z,19.89
2022-09-13T15:35:02.848Z,19.79
2022-09-13T15:37:37.169Z,19.78
2022-09-13T15:40:21.488Z,19.72
2022-09-13T15:42:51.575Z,19.66
2022-09-13T15:45:21.954Z,19.59
2022-09-13T15:47:52.004Z,19.53
2022-09-13T15:50:23.413Z,19.48
2022-09-13T15:52:52.184Z,19.44
2022-09-13T15:55:22.079Z,19.37
2022-09-13T15:57:50.480Z,19.33
2022-09-13T16:00:20.631Z,19.27
2022-09-13T16:02:49.073Z,19.16
2022-09-13T16:05:17.304Z,19.13
2022-09-13T16:07:45.702Z,19.04
2022-09-13T16:10:16.783Z,19.02
2022-09-13T16:12:46.373Z,18.93
2022-09-13T16:15:15.699Z,18.92
2022-09-13T16:17:43.791Z,18.82
2022-09-13T16:20:15.339Z,18.76
2022-09-13T16:22:46.135Z,18.71
2022-09-13T16:25:19.396Z,18.65
2022-09-13T16:27:50.463Z,18.62
2022-09-13T16:30:39.816Z,18.58
2022-09-13T16:33:09.265Z,18.53
2022-09-13T16:35:39.292Z,18.51
2022-09-13T16:38:15.512Z,18.44
2022-09-13T16:40:46.246Z,18.42
2022-09-13T16:43:14.691Z,18.41
2022-09-13T16:45:46.536Z,18.37
2022-09-13T16:48:19.289Z,18.41
2022-09-13T16:50:47.421Z,18.41
2022-09-13T16:53:16.881Z,18.39
2022-09-13T16:55:47.637Z,18.42
2022-09-13T16:58:24.388Z,18.41
2022-09-13T17:00:56.631Z,18.41
2022-09-13T17:03:30.137Z,18.41
2022-09-13T17:06:06.423Z,18.38
2022-09-13T17:08:35.656Z,18.35
2022-09-13T17:11:09.274Z,18.32
2022-09-13T17:13:38.078Z,18.27
2022-09-13T17:16:22.630Z,18.20
2022-09-13T17:18:59.608Z,18.14
2022-09-13T17:21:34.015Z,18.08
2022-09-13T17:24:03.013Z,18.01
2022-09-13T17:26:31.748Z,17.96
2022-09-13T17:29:01.179Z,17.86
2022-09-13T17:31:30.962Z,17.80
2022-09-13T17:34:00.946Z,17.76
2022-09-13T17:36:33.571Z,17.66
2022-09-13T17:39:02.718Z,17.60
2022-09-13T17:41:31.952Z,17.56
2022-09-13T17:44:07.742Z,17.48
2022-09-13T17:46:39.751Z,17.43
2022-09-13T17:49:19.886Z,17.36
2022-09-13T17:51:51.988Z,17.29
2022-09-13T17:54:33.025Z,17.22
2022-09-13T17:57:19.610Z,17.14
2022-09-13T17:59:53.964Z,17.07
2022-09-13T18:02:23.924Z,17.01
2022-09-13T18:04:52.288Z,16.94
2022-09-13T18:07:21.525Z,16.90
2022-09-13T18:09:52.640Z,16.81
2022-09-13T18:12:30.398Z,16.81
2022-09-13T18:15:03.653Z,16.77
2022-09-13T18:17:47.235Z,16.73
2022-09-13T18:20:47.676Z,16.69
2022-09-13T18:23:41.982Z,16.63
2022-09-13T18:26:50.415Z,16.56
2022-09-13T18:29:22.387Z,16.50
2022-09-13T18:31:53.764Z,16.44
2022-09-13T18:34:36.960Z,16.42
2022-09-13T18:37:14.348Z,16.36
2022-09-13T18:40:16.240Z,16.30
2022-09-13T18:43:10.980Z,16.30
2022-09-13T18:48:57.137Z,16.16
2022-09-13T18:51:37.708Z,16.15
2022-09-13T18:54:19.502Z,16.09
2022-09-13T18:56:57.692Z,16.05
2022-09-13T19:03:11.928Z,15.98
2022-09-13T19:05:51.967Z,15.98
2022-09-13T19:15:06.889Z,15.85
2022-09-13T19:17:39.232Z,15.84
2022-09-13T19:20:22.493Z,15.79
2022-09-13T19:23:21.189Z,15.75
2022-09-13T19:26:23.133Z,15.77
2022-09-13T19:29:15.315Z,15.68
2022-09-13T19:31:59.351Z,15.65
2022-09-13T19:34:41.000Z,15.58
2022-09-13T19:37:33.202Z,15.54
2022-09-13T19:44:06.270Z,15.44
2022-09-13T19:46:42.434Z,15.40
2022-09-13T19:52:43.110Z,15.22
2022-09-13T19:55:24.321Z,15.18
2022-09-13T19:58:21.098Z,15.16
2022-09-13T20:01:16.316Z,15.07
2022-09-13T20:03:58.181Z,15.02
2022-09-13T20:06:43.619Z,14.99
2022-09-13T20:10:11.275Z,14.93
2022-09-13T20:13:15.459Z,14.88
2022-09-13T20:16:08.037Z,14.84
2022-09-13T20:18:47.036Z,14.79
2022-09-13T20:21:20.760Z,14.74
2022-09-13T20:24:01.117Z,14.69
2022-09-13T20:26:52.543Z,14.65
2022-09-13T20:29:25.794Z,14.60
2022-09-13T20:31:56.798Z,14.57
2022-09-13T20:34:28.586Z,14.54
2022-09-13T20:43:44.481Z,14.40
2022-09-13T20:46:31.088Z,14.38
2022-09-13T20:49:12.803Z,14.36
2022-09-13T20:52:34.088Z,14.31
2022-09-13T20:54:52.186Z,14.26
2022-09-13T20:57:58.149Z,14.21
2022-09-13T21:00:49.075Z,14.20
2022-09-13T21:03:25.720Z,14.16
2022-09-13T21:06:03.470Z,14.10
2022-09-13T21:08:52.948Z,14.10
2022-09-13T21:11:31.263Z,14.07
2022-09-13T21:14:09.407Z,14.02
2022-09-13T21:16:41.907Z,13.99
2022-09-13T21:19:13.984Z,13.93
2022-09-13T21:21:43.498Z,13.89
2022-09-13T21:24:36.019Z,13.85
2022-09-13T21:27:12.688Z,13.82
2022-09-13T21:30:24.010Z,13.79
2022-09-13T21:33:41.205Z,13.70
2022-09-13T21:48:01.954Z,13.42
2022-09-13T21:50:36.410Z,13.38
2022-09-13T21:53:09.814Z,13.34
2022-09-13T21:55:45.463Z,13.26
2022-09-13T21:58:22.480Z,13.26
2022-09-13T22:00:53.220Z,13.20
2022-09-13T22:03:40.076Z,13.11
2022-09-13T22:06:33.634Z,13.06
2022-09-13T22:09:10.946Z,13.01
2022-09-13T22:12:02.169Z,12.97
2022-09-13T22:17:52.710Z,12.91
2022-09-13T22:20:32.496Z,12.90
2022-09-13T22:23:23.093Z,12.86
2022-09-13T22:29:26.193Z,12.75
2022-09-13T22:43:53.514Z,12.63
2022-09-13T22:46:27.100Z,12.63
2022-09-13T22:49:03.460Z,12.61
2022-09-13T22:51:38.285Z,12.58
2022-09-13T22:54:11.259Z,12.53
2022-09-13T22:57:00.607Z,12.51
2022-09-13T22:59:38.894Z,12.49
2022-09-13T23:02:09.014Z,12.52
2022-09-13T23:04:43.969Z,12.52
2022-09-13T23:07:16.458Z,12.46
2022-09-13T23:09:50.328Z,12.44
2022-09-13T23:12:25.981Z,12.44
2022-09-13T23:14:58.595Z,12.48
2022-09-13T23:17:28.936Z,12.42
2022-09-13T23:20:04.660Z,12.39
2022-09-13T23:22:53.562Z,12.36
2022-09-13T23:25:28.246Z,12.35
2022-09-13T23:28:04.593Z,12.32
2022-09-13T23:30:34.878Z,12.31
2022-09-13T23:33:03.178Z,12.29
2022-09-13T23:35:33.810Z,12.25
2022-09-13T23:38:03.628Z,12.24
2022-09-13T23:40:32.289Z,12.22
2022-09-13T23:43:00.571Z,12.17
2022-09-13T23:45:29.321Z,12.18
2022-09-13T23:48:02.950Z,12.15
2022-09-13T23:50:31.399Z,12.15
2022-09-13T23:53:01.117Z,12.14
2022-09-13T23:55:29.562Z,12.10
2022-09-13T23:57:59.654Z,12.04
